sensor_id;sensor_type;location;lat;lon;timestamp;pressure;altitude;pressure_sealevel;temperature;humidity
47524;BME280;33253;42.144;25.884;2023-02-23T00:02:09;100458.88;;;6.18;100.00
47524;BME280;33253;42.144;25.884;2023-02-23T00:04:34;100463.53;;;6.08;100.00
47524;BME280;33253;42.144;25.884;2023-02-23T00:07:00;100462.38;;;6.03;100.00
47524;BME280;33253;42.144;25.884;2023-02-23T00:09:25;100473.13;;;5.97;100.00
47524;BME280;33253;42.144;25.884;2023-02-23T00:11:55;100476.06;;;5.89;100.00
47524;BME280;33253;42.144;25.884;2023-02-23T00:14:23;100473.16;;;5.82;100.00
47524;BME280;33253;42.144;25.884;2023-02-23T00:16:51;100475.66;;;5.81;100.00
47524;BME280;33253;42.144;25.884;2023-02-23T00:19:16;100470.19;;;5.75;100.00
47524;BME280;33253;42.144;25.884;2023-02-23T00:21:41;100479.09;;;5.66;100.00
47524;BME280;33253;42.144;25.884;2023-02-23T00:24:08;100483.06;;;5.61;100.00
47524;BME280;33253;42.144;25.884;2023-02-23T00:26:34;100481.16;;;5.57;100.00
47524;BME280;33253;42.144;25.884;2023-02-23T00:29:01;100482.81;;;5.57;100.00
47524;BME280;33253;42.144;25.884;2023-02-23T00:31:27;100481.31;;;5.60;100.00
47524;BME280;33253;42.144;25.884;2023-02-23T00:33:56;100492.00;;;5.53;100.00
47524;BME280;33253;42.144;25.884;2023-02-23T00:36:23;100492.34;;;5.29;100.00
47524;BME280;33253;42.144;25.884;2023-02-23T00:38:53;100488.97;;;5.15;100.00
47524;BME280;33253;42.144;25.884;2023-02-23T00:41:19;100490.13;;;5.21;100.00
47524;BME280;33253;42.144;25.884;2023-02-23T00:43:47;100484.50;;;5.26;100.00
47524;BME280;33253;42.144;25.884;2023-02-23T00:46:13;100481.66;;;5.22;100.00
47524;BME280;33253;42.144;25.884;2023-02-23T00:48:40;100482.69;;;5.10;100.00
47524;BME280;33253;42.144;25.884;2023-02-23T00:51:06;100486.59;;;5.18;100.00
47524;BME280;33253;42.144;25.884;2023-02-23T00:53:31;100484.75;;;5.16;100.00
47524;BME280;33253;42.144;25.884;2023-02-23T00:55:57;100478.78;;;5.02;100.00
47524;BME280;33253;42.144;25.884;2023-02-23T00:58:23;100473.59;;;5.00;100.00
47524;BME280;33253;42.144;25.884;2023-02-23T01:00:49;100472.81;;;5.01;100.00
47524;BME280;33253;42.144;25.884;2023-02-23T01:03:14;100479.06;;;5.07;100.00
47524;BME280;33253;42.144;25.884;2023-02-23T01:05:39;100476.34;;;5.04;100.00
47524;BME280;33253;42.144;25.884;2023-02-23T01:08:04;100478.22;;;5.06;100.00
47524;BME280;33253;42.144;25.884;2023-02-23T01:10:33;100480.75;;;5.06;100.00
47524;BME280;33253;42.144;25.884;2023-02-23T01:13:00;100480.75;;;5.06;100.00
47524;BME280;33253;42.144;25.884;2023-02-23T01:15:26;100481.13;;;5.12;100.00
47524;BME280;33253;42.144;25.884;2023-02-23T01:17:51;100483.06;;;5.16;100.00
47524;BME280;33253;42.144;25.884;2023-02-23T01:20:17;100486.06;;;5.24;100.00
47524;BME280;33253;42.144;25.884;2023-02-23T01:22:47;100483.34;;;5.21;100.00
47524;BME280;33253;42.144;25.884;2023-02-23T01:25:13;100487.13;;;5.28;100.00
47524;BME280;33253;42.144;25.884;2023-02-23T01:27:39;100482.91;;;5.28;100.00
47524;BME280;33253;42.144;25.884;2023-02-23T01:30:05;100479.81;;;5.34;100.00
47524;BME280;33253;42.144;25.884;2023-02-23T01:32:32;100481.50;;;5.33;100.00
47524;BME280;33253;42.144;25.884;2023-02-23T01:34:58;100480.59;;;5.48;100.00
47524;BME280;33253;42.144;25.884;2023-02-23T01:37:23;100483.78;;;5.44;100.00
47524;BME280;33253;42.144;25.884;2023-02-23T01:39:48;100477.44;;;5.52;100.00
47524;BME280;33253;42.144;25.884;2023-02-23T01:42:14;100488.91;;;5.59;100.00
47524;BME280;33253;42.144;25.884;2023-02-23T01:47:06;100482.91;;;5.58;100.00
47524;BME280;33253;42.144;25.884;2023-02-23T01:49:32;100476.63;;;5.68;100.00
47524;BME280;33253;42.144;25.884;2023-02-23T01:52:03;100483.00;;;5.75;100.00
47524;BME280;33253;42.144;25.884;2023-02-23T01:54:29;100481.56;;;5.80;100.00
47524;BME280;33253;42.144;25.884;2023-02-23T01:56:57;100480.41;;;5.90;100.00
47524;BME280;33253;42.144;25.884;2023-02-23T01:59:24;100482.69;;;5.85;100.00
47524;BME280;33253;42.144;25.884;2023-02-23T02:01:52;100482.88;;;5.88;100.00
47524;BME280;33253;42.144;25.884;2023-02-23T02:04:18;100481.28;;;5.90;100.00
47524;BME280;33253;42.144;25.884;2023-02-23T02:06:44;100481.66;;;5.66;100.00
47524;BME280;33253;42.144;25.884;2023-02-23T02:09:13;100491.56;;;5.60;100.00
47524;BME280;33253;42.144;25.884;2023-02-23T02:11:41;100494.13;;;5.60;100.00
47524;BME280;33253;42.144;25.884;2023-02-23T02:14:09;100496.75;;;5.62;100.00
47524;BME280;33253;42.144;25.884;2023-02-23T02:24:16;100500.84;;;5.73;100.00
47524;BME280;33253;42.144;25.884;2023-02-23T02:42:41;100512.13;;;5.62;100.00
47524;BME280;33253;42.144;25.884;2023-02-23T02:50:07;100519.56;;;5.72;100.00
47524;BME280;33253;42.144;25.884;2023-02-23T02:52:36;100526.91;;;5.66;100.00
47524;BME280;33253;42.144;25.884;2023-02-23T02:55:06;100525.91;;;5.64;100.00
47524;BME280;33253;42.144;25.884;2023-02-23T02:57:36;100521.56;;;5.48;100.00
47524;BME280;33253;42.144;25.884;2023-02-23T03:00:02;100525.63;;;5.29;100.00
47524;BME280;33253;42.144;25.884;2023-02-23T03:02:46;100520.31;;;5.26;100.00
47524;BME280;33253;42.144;25.884;2023-02-23T03:05:35;100524.66;;;5.27;100.00
47524;BME280;33253;42.144;25.884;2023-02-23T03:08:36;100520.78;;;5.34;100.00
47524;BME280;33253;42.144;25.884;2023-02-23T03:11:21;100520.97;;;5.52;100.00
47524;BME280;33253;42.144;25.884;2023-02-23T03:19:53;100520.72;;;5.62;100.00
47524;BME280;33253;42.144;25.884;2023-02-23T03:22:43;100526.00;;;5.65;100.00
47524;BME280;33253;42.144;25.884;2023-02-23T03:28:34;100522.13;;;5.72;100.00
47524;BME280;33253;42.144;25.884;2023-02-23T03:31:26;100524.56;;;5.86;100.00
47524;BME280;33253;42.144;25.884;2023-02-23T03:34:18;100532.00;;;5.81;100.00
47524;BME280;33253;42.144;25.884;2023-02-23T03:37:17;100521.56;;;5.93;100.00
47524;BME280;33253;42.144;25.884;2023-02-23T03:40:04;100524.84;;;6.05;100.00
47524;BME280;33253;42.144;25.884;2023-02-23T03:42:51;100533.09;;;5.99;100.00
47524;BME280;33253;42.144;25.884;2023-02-23T03:45:36;100531.41;;;6.00;100.00
47524;BME280;33253;42.144;25.884;2023-02-23T03:48:21;100531.44;;;6.17;100.00
47524;BME280;33253;42.144;25.884;2023-02-23T03:51:06;100533.44;;;6.06;100.00
47524;BME280;33253;42.144;25.884;2023-02-23T03:53:54;100529.16;;;5.91;100.00
47524;BME280;33253;42.144;25.884;2023-02-23T03:56:41;100536.78;;;5.75;100.00
47524;BME280;33253;42.144;25.884;2023-02-23T03:59:28;100536.22;;;5.65;100.00
47524;BME280;33253;42.144;25.884;2023-02-23T04:02:13;100539.06;;;5.55;100.00
47524;BME280;33253;42.144;25.884;2023-02-23T04:04:58;100535.00;;;5.59;100.00
47524;BME280;33253;42.144;25.884;2023-02-23T04:07:44;100538.19;;;5.55;100.00
47524;BME280;33253;42.144;25.884;2023-02-23T04:10:30;100545.97;;;5.56;100.00
47524;BME280;33253;42.144;25.884;2023-02-23T04:13:19;100541.28;;;5.49;100.00
47524;BME280;33253;42.144;25.884;2023-02-23T04:15:59;100542.06;;;5.48;100.00
47524;BME280;33253;42.144;25.884;2023-02-23T04:18:26;100537.91;;;5.35;100.00
47524;BME280;33253;42.144;25.884;2023-02-23T04:20:53;100538.63;;;5.47;100.00
47524;BME280;33253;42.144;25.884;2023-02-23T04:23:18;100543.03;;;5.50;100.00
47524;BME280;33253;42.144;25.884;2023-02-23T04:25:46;100544.69;;;5.49;100.00
47524;BME280;33253;42.144;25.884;2023-02-23T04:28:12;100542.84;;;5.47;100.00
47524;BME280;33253;42.144;25.884;2023-02-23T04:30:37;100548.25;;;5.51;100.00
47524;BME280;33253;42.144;25.884;2023-02-23T04:33:02;100550.88;;;5.53;100.00
47524;BME280;33253;42.144;25.884;2023-02-23T04:35:27;100554.50;;;5.57;100.00
47524;BME280;33253;42.144;25.884;2023-02-23T04:37:55;100552.59;;;5.67;100.00
47524;BME280;33253;42.144;25.884;2023-02-23T04:40:20;100553.28;;;5.80;100.00
47524;BME280;33253;42.144;25.884;2023-02-23T04:42:46;100556.22;;;5.86;100.00
47524;BME280;33253;42.144;25.884;2023-02-23T04:45:11;100554.78;;;5.91;100.00
47524;BME280;33253;42.144;25.884;2023-02-23T04:47:37;100551.91;;;6.00;100.00
47524;BME280;33253;42.144;25.884;2023-02-23T04:50:02;100553.28;;;5.95;100.00
47524;BME280;33253;42.144;25.884;2023-02-23T04:52:27;100547.03;;;6.05;100.00
47524;BME280;33253;42.144;25.884;2023-02-23T04:54:53;100547.53;;;6.14;100.00
47524;BME280;33253;42.144;25.884;2023-02-23T04:57:18;100548.06;;;6.23;100.00
47524;BME280;33253;42.144;25.884;2023-02-23T04:59:43;100550.00;;;6.27;100.00
47524;BME280;33253;42.144;25.884;2023-02-23T05:02:09;100553.34;;;6.26;100.00
47524;BME280;33253;42.144;25.884;2023-02-23T05:04:34;100549.38;;;6.31;100.00
47524;BME280;33253;42.144;25.884;2023-02-23T05:07:00;100555.06;;;6.26;100.00
47524;BME280;33253;42.144;25.884;2023-02-23T05:09:25;100560.41;;;6.30;100.00
47524;BME280;33253;42.144;25.884;2023-02-23T05:11:51;100563.25;;;6.35;100.00
47524;BME280;33253;42.144;25.884;2023-02-23T05:14:16;100562.94;;;6.45;100.00
47524;BME280;33253;42.144;25.884;2023-02-23T05:16:41;100569.94;;;6.48;100.00
47524;BME280;33253;42.144;25.884;2023-02-23T05:19:06;100572.66;;;6.51;100.00
47524;BME280;33253;42.144;25.884;2023-02-23T05:21:32;100579.25;;;6.62;100.00
47524;BME280;33253;42.144;25.884;2023-02-23T05:23:57;100583.69;;;6.65;100.00
47524;BME280;33253;42.144;25.884;2023-02-23T05:26:22;100582.47;;;6.58;100.00
47524;BME280;33253;42.144;25.884;2023-02-23T05:28:48;100585.84;;;6.57;100.00
47524;BME280;33253;42.144;25.884;2023-02-23T05:31:13;100591.81;;;6.58;100.00
47524;BME280;33253;42.144;25.884;2023-02-23T05:33:39;100596.09;;;6.57;100.00
47524;BME280;33253;42.144;25.884;2023-02-23T05:36:12;100599.09;;;6.50;100.00
47524;BME280;33253;42.144;25.884;2023-02-23T05:38:38;100601.41;;;6.45;100.00
47524;BME280;33253;42.144;25.884;2023-02-23T05:41:07;100610.44;;;6.39;100.00
47524;BME280;33253;42.144;25.884;2023-02-23T05:43:32;100603.56;;;6.38;100.00
47524;BME280;33253;42.144;25.884;2023-02-23T05:45:58;100608.41;;;6.48;100.00
47524;BME280;33253;42.144;25.884;2023-02-23T05:48:25;100608.31;;;6.46;100.00
47524;BME280;33253;42.144;25.884;2023-02-23T05:50:50;100614.75;;;6.55;100.00
47524;BME280;33253;42.144;25.884;2023-02-23T05:53:15;100621.59;;;6.54;100.00
47524;BME280;33253;42.144;25.884;2023-02-23T05:55:41;100620.41;;;6.49;100.00
47524;BME280;33253;42.144;25.884;2023-02-23T05:58:06;100630.53;;;6.46;100.00
47524;BME280;33253;42.144;25.884;2023-02-23T06:00:31;100633.81;;;6.43;100.00
47524;BME280;33253;42.144;25.884;2023-02-23T06:02:57;100640.84;;;6.47;100.00
47524;BME280;33253;42.144;25.884;2023-02-23T06:05:22;100644.59;;;6.38;100.00
47524;BME280;33253;42.144;25.884;2023-02-23T06:07:47;100646.91;;;6.33;100.00
47524;BME280;33253;42.144;25.884;2023-02-23T06:10:13;100653.97;;;6.22;100.00
47524;BME280;33253;42.144;25.884;2023-02-23T06:12:38;100663.44;;;6.23;100.00
47524;BME280;33253;42.144;25.884;2023-02-23T06:15:03;100662.66;;;6.24;100.00
47524;BME280;33253;42.144;25.884;2023-02-23T06:17:29;100661.47;;;6.19;100.00
47524;BME280;33253;42.144;25.884;2023-02-23T06:19:54;100655.41;;;6.17;100.00
47524;BME280;33253;42.144;25.884;2023-02-23T06:22:20;100660.53;;;6.17;100.00
47524;BME280;33253;42.144;25.884;2023-02-23T06:24:45;100661.03;;;6.26;100.00
47524;BME280;33253;42.144;25.884;2023-02-23T06:27:10;100663.78;;;6.44;100.00
47524;BME280;33253;42.144;25.884;2023-02-23T06:29:36;100666.06;;;6.40;100.00
47524;BME280;33253;42.144;25.884;2023-02-23T06:32:02;100660.94;;;6.40;100.00
47524;BME280;33253;42.144;25.884;2023-02-23T06:34:27;100662.09;;;6.45;100.00
47524;BME280;33253;42.144;25.884;2023-02-23T06:36:53;100664.38;;;6.55;100.00
47524;BME280;33253;42.144;25.884;2023-02-23T06:39:18;100667.91;;;6.57;100.00
47524;BME280;33253;42.144;25.884;2023-02-23T06:41:43;100665.44;;;6.59;100.00
47524;BME280;33253;42.144;25.884;2023-02-23T06:44:09;100668.56;;;6.53;100.00
47524;BME280;33253;42.144;25.884;2023-02-23T06:46:34;100666.44;;;6.46;100.00
47524;BME280;33253;42.144;25.884;2023-02-23T06:49:00;100671.22;;;6.40;100.00
47524;BME280;33253;42.144;25.884;2023-02-23T06:51:25;100670.56;;;6.44;100.00
47524;BME280;33253;42.144;25.884;2023-02-23T06:53:51;100670.59;;;6.29;100.00
47524;BME280;33253;42.144;25.884;2023-02-23T06:56:17;100676.00;;;6.19;100.00
47524;BME280;33253;42.144;25.884;2023-02-23T06:58:42;100669.72;;;6.13;100.00
47524;BME280;33253;42.144;25.884;2023-02-23T07:01:08;100676.25;;;6.23;100.00
47524;BME280;33253;42.144;25.884;2023-02-23T07:03:34;100681.81;;;6.31;100.00
47524;BME280;33253;42.144;25.884;2023-02-23T07:06:00;100683.16;;;6.39;100.00
47524;BME280;33253;42.144;25.884;2023-02-23T07:08:26;100684.53;;;6.49;100.00
47524;BME280;33253;42.144;25.884;2023-02-23T07:10:53;100682.25;;;6.54;100.00
47524;BME280;33253;42.144;25.884;2023-02-23T07:13:18;100695.84;;;6.68;100.00
47524;BME280;33253;42.144;25.884;2023-02-23T07:15:44;100685.78;;;6.71;100.00
47524;BME280;33253;42.144;25.884;2023-02-23T07:18:09;100688.75;;;6.78;100.00
47524;BME280;33253;42.144;25.884;2023-02-23T07:20:35;100688.13;;;6.83;100.00
47524;BME280;33253;42.144;25.884;2023-02-23T07:23:02;100688.69;;;6.77;100.00
47524;BME280;33253;42.144;25.884;2023-02-23T07:25:51;100689.63;;;6.79;100.00
47524;BME280;33253;42.144;25.884;2023-02-23T07:28:17;100689.28;;;6.73;100.00
47524;BME280;33253;42.144;25.884;2023-02-23T07:30:42;100688.34;;;6.71;100.00
47524;BME280;33253;42.144;25.884;2023-02-23T07:33:08;100698.22;;;6.79;100.00
47524;BME280;33253;42.144;25.884;2023-02-23T07:35:33;100695.13;;;6.70;100.00
47524;BME280;33253;42.144;25.884;2023-02-23T07:37:58;100702.56;;;6.80;100.00
47524;BME280;33253;42.144;25.884;2023-02-23T07:40:24;100709.09;;;6.90;100.00
47524;BME280;33253;42.144;25.884;2023-02-23T07:42:50;100700.91;;;6.97;100.00
47524;BME280;33253;42.144;25.884;2023-02-23T07:45:15;100705.31;;;7.00;100.00
47524;BME280;33253;42.144;25.884;2023-02-23T07:47:41;100708.16;;;7.05;100.00
47524;BME280;33253;42.144;25.884;2023-02-23T07:50:06;100704.34;;;7.13;100.00
47524;BME280;33253;42.144;25.884;2023-02-23T07:52:34;100704.94;;;7.09;100.00
47524;BME280;33253;42.144;25.884;2023-02-23T07:54:59;100709.06;;;7.05;100.00
47524;BME280;33253;42.144;25.884;2023-02-23T07:57:25;100702.16;;;7.04;100.00
47524;BME280;33253;42.144;25.884;2023-02-23T07:59:50;100704.88;;;7.07;100.00
47524;BME280;33253;42.144;25.884;2023-02-23T08:02:16;100708.16;;;7.05;100.00
47524;BME280;33253;42.144;25.884;2023-02-23T08:04:41;100703.31;;;6.94;100.00
47524;BME280;33253;42.144;25.884;2023-02-23T08:07:07;100716.31;;;6.97;100.00
47524;BME280;33253;42.144;25.884;2023-02-23T08:09:33;100707.81;;;6.99;100.00
47524;BME280;33253;42.144;25.884;2023-02-23T08:11:59;100712.44;;;7.04;100.00
47524;BME280;33253;42.144;25.884;2023-02-23T08:14:25;100716.75;;;7.05;100.00
47524;BME280;33253;42.144;25.884;2023-02-23T08:16:50;100717.94;;;6.95;100.00
47524;BME280;33253;42.144;25.884;2023-02-23T08:19:15;100715.63;;;6.85;100.00
47524;BME280;33253;42.144;25.884;2023-02-23T08:21:40;100718.38;;;6.88;100.00
47524;BME280;33253;42.144;25.884;2023-02-23T08:24:07;100725.28;;;6.89;100.00
47524;BME280;33253;42.144;25.884;2023-02-23T08:26:34;100719.69;;;6.96;100.00
47524;BME280;33253;42.144;25.884;2023-02-23T08:28:59;100721.91;;;7.05;100.00
47524;BME280;33253;42.144;25.884;2023-02-23T08:31:24;100722.06;;;7.08;100.00
47524;BME280;33253;42.144;25.884;2023-02-23T08:33:51;100720.47;;;7.10;100.00
47524;BME280;33253;42.144;25.884;2023-02-23T08:36:17;100727.97;;;7.07;100.00
47524;BME280;33253;42.144;25.884;2023-02-23T08:38:44;100722.22;;;7.11;100.00
47524;BME280;33253;42.144;25.884;2023-02-23T08:41:09;100730.97;;;7.15;100.00
47524;BME280;33253;42.144;25.884;2023-02-23T08:43:43;100724.25;;;7.17;100.00
47524;BME280;33253;42.144;25.884;2023-02-23T08:46:08;100733.25;;;7.25;100.00
47524;BME280;33253;42.144;25.884;2023-02-23T08:48:34;100732.88;;;7.34;100.00
47524;BME280;33253;42.144;25.884;2023-02-23T08:50:59;100735.59;;;7.37;100.00
47524;BME280;33253;42.144;25.884;2023-02-23T08:53:25;100736.50;;;7.38;100.00
47524;BME280;33253;42.144;25.884;2023-02-23T08:55:57;100738.50;;;7.43;100.00
47524;BME280;33253;42.144;25.884;2023-02-23T08:58:23;100742.19;;;7.49;100.00
47524;BME280;33253;42.144;25.884;2023-02-23T09:00:49;100737.16;;;7.50;100.00
47524;BME280;33253;42.144;25.884;2023-02-23T09:03:14;100742.28;;;7.50;100.00
47524;BME280;33253;42.144;25.884;2023-02-23T09:05:39;100743.56;;;7.58;100.00
47524;BME280;33253;42.144;25.884;2023-02-23T09:08:04;100743.56;;;7.58;100.00
47524;BME280;33253;42.144;25.884;2023-02-23T09:10:31;100744.63;;;7.62;100.00
47524;BME280;33253;42.144;25.884;2023-02-23T09:12:57;100740.53;;;7.66;100.00
47524;BME280;33253;42.144;25.884;2023-02-23T09:15:23;100743.69;;;7.76;100.00
47524;BME280;33253;42.144;25.884;2023-02-23T09:17:48;100742.16;;;7.80;100.00
47524;BME280;33253;42.144;25.884;2023-02-23T09:20:14;100742.16;;;7.80;100.00
47524;BME280;33253;42.144;25.884;2023-02-23T09:22:43;100735.47;;;7.84;100.00
47524;BME280;33253;42.144;25.884;2023-02-23T09:25:12;100746.72;;;7.86;100.00
47524;BME280;33253;42.144;25.884;2023-02-23T09:27:38;100739.41;;;7.93;100.00
47524;BME280;33253;42.144;25.884;2023-02-23T09:30:03;100746.56;;;7.99;100.00
47524;BME280;33253;42.144;25.884;2023-02-23T09:32:29;100741.16;;;7.94;100.00
47524;BME280;33253;42.144;25.884;2023-02-23T09:34:54;100743.66;;;7.93;100.00
47524;BME280;33253;42.144;25.884;2023-02-23T09:37:20;100737.88;;;7.97;100.00
47524;BME280;33253;42.144;25.884;2023-02-23T09:39:45;100735.28;;;7.97;100.00
47524;BME280;33253;42.144;25.884;2023-02-23T09:44:42;100740.75;;;8.03;100.00
47524;BME280;33253;42.144;25.884;2023-02-23T09:49:44;100730.75;;;8.26;100.00
47524;BME280;33253;42.144;25.884;2023-02-23T09:52:35;100726.34;;;8.23;100.00
47524;BME280;33253;42.144;25.884;2023-02-23T09:54:56;100730.63;;;8.23;100.00
47524;BME280;33253;42.144;25.884;2023-02-23T09:57:24;100728.19;;;8.26;100.00
47524;BME280;33253;42.144;25.884;2023-02-23T09:59:51;100732.53;;;8.27;100.00
47524;BME280;33253;42.144;25.884;2023-02-23T10:02:22;100730.88;;;8.46;100.00
47524;BME280;33253;42.144;25.884;2023-02-23T10:04:52;100730.41;;;8.53;100.00
47524;BME280;33253;42.144;25.884;2023-02-23T10:15:14;100727.16;;;8.57;100.00
47524;BME280;33253;42.144;25.884;2023-02-23T10:22:48;100720.50;;;8.44;100.00
47524;BME280;33253;42.144;25.884;2023-02-23T10:25:18;100719.72;;;8.45;100.00
47524;BME280;33253;42.144;25.884;2023-02-23T10:27:47;100725.41;;;8.56;100.00
47524;BME280;33253;42.144;25.884;2023-02-23T10:30:17;100717.41;;;8.68;100.00
47524;BME280;33253;42.144;25.884;2023-02-23T10:32:49;100721.16;;;8.74;100.00
47524;BME280;33253;42.144;25.884;2023-02-23T10:35:17;100718.22;;;8.67;100.00
47524;BME280;33253;42.144;25.884;2023-02-23T10:37:44;100719.97;;;8.68;100.00
47524;BME280;33253;42.144;25.884;2023-02-23T10:40:16;100712.56;;;8.74;100.00
47524;BME280;33253;42.144;25.884;2023-02-23T10:42:42;100714.34;;;8.75;100.00
47524;BME280;33253;42.144;25.884;2023-02-23T10:45:11;100712.41;;;8.71;100.00
47524;BME280;33253;42.144;25.884;2023-02-23T10:47:42;100713.97;;;8.67;100.00
47524;BME280;33253;42.144;25.884;2023-02-23T10:50:09;100714.66;;;8.65;100.00
47524;BME280;33253;42.144;25.884;2023-02-23T10:52:41;100713.22;;;8.70;100.00
47524;BME280;33253;42.144;25.884;2023-02-23T10:55:24;100717.09;;;8.80;100.00
47524;BME280;33253;42.144;25.884;2023-02-23T10:57:59;100716.59;;;8.87;100.00
47524;BME280;33253;42.144;25.884;2023-02-23T11:00:26;100713.50;;;8.94;100.00
47524;BME280;33253;42.144;25.884;2023-02-23T11:02:56;100713.88;;;9.02;100.00
47524;BME280;33253;42.144;25.884;2023-02-23T11:08:10;100706.13;;;9.02;100.00
47524;BME280;33253;42.144;25.884;2023-02-23T11:10:35;100695.66;;;8.97;100.00
47524;BME280;33253;42.144;25.884;2023-02-23T11:13:02;100693.44;;;9.05;100.00
47524;BME280;33253;42.144;25.884;2023-02-23T11:15:32;100694.63;;;9.13;100.00
47524;BME280;33253;42.144;25.884;2023-02-23T11:18:01;100692.28;;;9.18;100.00
47524;BME280;33253;42.144;25.884;2023-02-23T11:20:32;100696.13;;;9.08;100.00
47524;BME280;33253;42.144;25.884;2023-02-23T11:23:00;100692.81;;;9.11;100.00
47524;BME280;33253;42.144;25.884;2023-02-23T11:25:27;100687.59;;;9.09;100.00
47524;BME280;33253;42.144;25.884;2023-02-23T11:27:53;100685.81;;;9.26;100.00
47524;BME280;33253;42.144;25.884;2023-02-23T11:30:21;100687.00;;;9.34;100.00
47524;BME280;33253;42.144;25.884;2023-02-23T11:32:52;100687.38;;;9.42;100.00
47524;BME280;33253;42.144;25.884;2023-02-23T11:37:44;100686.97;;;9.52;100.00
47524;BME280;33253;42.144;25.884;2023-02-23T11:42:50;100680.81;;;9.49;100.00
47524;BME280;33253;42.144;25.884;2023-02-23T11:45:18;100682.41;;;9.47;100.00
47524;BME280;33253;42.144;25.884;2023-02-23T11:47:45;100689.94;;;9.62;100.00
47524;BME280;33253;42.144;25.884;2023-02-23T11:52:52;100687.91;;;9.74;100.00
47524;BME280;33253;42.144;25.884;2023-02-23T11:55:19;100685.59;;;9.80;100.00
47524;BME280;33253;42.144;25.884;2023-02-23T11:57:45;100690.69;;;9.79;100.00
47524;BME280;33253;42.144;25.884;2023-02-23T12:00:20;100688.59;;;9.50;100.00
47524;BME280;33253;42.144;25.884;2023-02-23T12:02:48;100679.53;;;9.59;100.00
47524;BME280;33253;42.144;25.884;2023-02-23T12:05:21;100689.63;;;9.74;100.00
47524;BME280;33253;42.144;25.884;2023-02-23T12:10:39;100685.06;;;9.68;100.00
47524;BME280;33253;42.144;25.884;2023-02-23T12:13:11;100690.50;;;9.74;100.00
47524;BME280;33253;42.144;25.884;2023-02-23T12:23:36;100691.16;;;9.50;100.00
47524;BME280;33253;42.144;25.884;2023-02-23T12:26:04;100686.78;;;9.67;100.00
47524;BME280;33253;42.144;25.884;2023-02-23T12:28:36;100682.09;;;9.78;100.00
47524;BME280;33253;42.144;25.884;2023-02-23T12:36:17;100684.59;;;9.77;100.00
47524;BME280;33253;42.144;25.884;2023-02-23T12:41:20;100686.84;;;9.69;100.00
47524;BME280;33253;42.144;25.884;2023-02-23T12:43:51;100683.19;;;9.64;100.00
47524;BME280;33253;42.144;25.884;2023-02-23T12:53:58;100689.34;;;9.67;100.00
47524;BME280;33253;42.144;25.884;2023-02-23T13:16:40;100702.25;;;9.87;100.00
47524;BME280;33253;42.144;25.884;2023-02-23T13:22:13;100694.91;;;9.77;100.00
47524;BME280;33253;42.144;25.884;2023-02-23T13:24:35;100700.16;;;9.78;100.00
47524;BME280;33253;42.144;25.884;2023-02-23T13:27:23;100697.56;;;9.78;100.00
47524;BME280;33253;42.144;25.884;2023-02-23T13:29:47;100700.25;;;9.81;100.00
47524;BME280;33253;42.144;25.884;2023-02-23T13:32:21;100699.56;;;9.85;100.00
47524;BME280;33253;42.144;25.884;2023-02-23T13:34:49;100698.44;;;9.79;100.00
47524;BME280;33253;42.144;25.884;2023-02-23T13:37:17;100697.31;;;9.72;100.00
47524;BME280;33253;42.144;25.884;2023-02-23T13:52:42;100694.34;;;9.84;100.00
47524;BME280;33253;42.144;25.884;2023-02-23T13:57:52;100690.69;;;9.98;100.00
47524;BME280;33253;42.144;25.884;2023-02-23T14:00:18;100692.72;;;10.06;100.00
47524;BME280;33253;42.144;25.884;2023-02-23T14:02:44;100695.47;;;10.10;100.00
47524;BME280;33253;42.144;25.884;2023-02-23T14:05:17;100690.84;;;10.23;100.00
47524;BME280;33253;42.144;25.884;2023-02-23T14:07:44;100692.34;;;10.37;100.00
47524;BME280;33253;42.144;25.884;2023-02-23T14:10:24;100703.78;;;10.44;100.00
47524;BME280;33253;42.144;25.884;2023-02-23T14:18:00;100710.47;;;10.60;100.00
47524;BME280;33253;42.144;25.884;2023-02-23T14:33:36;100712.53;;;10.68;100.00
47524;BME280;33253;42.144;25.884;2023-02-23T14:36:02;100704.03;;;10.71;100.00
47524;BME280;33253;42.144;25.884;2023-02-23T14:41:25;100702.09;;;10.65;100.00
47524;BME280;33253;42.144;25.884;2023-02-23T14:43:53;100706.31;;;10.63;100.00
47524;BME280;33253;42.144;25.884;2023-02-23T14:46:19;100704.72;;;10.67;100.00
47524;BME280;33253;42.144;25.884;2023-02-23T14:48:54;100707.16;;;10.64;100.00
47524;BME280;33253;42.144;25.884;2023-02-23T14:51:24;100704.47;;;10.61;100.00
47524;BME280;33253;42.144;25.884;2023-02-23T14:53:50;100703.72;;;10.63;100.00
47524;BME280;33253;42.144;25.884;2023-02-23T14:56:18;100707.25;;;10.65;100.00
47524;BME280;33253;42.144;25.884;2023-02-23T14:58:45;100706.34;;;10.65;100.00
47524;BME280;33253;42.144;25.884;2023-02-23T15:01:23;100710.72;;;10.66;100.00
47524;BME280;33253;42.144;25.884;2023-02-23T15:04:04;100705.50;;;10.64;100.00
47524;BME280;33253;42.144;25.884;2023-02-23T15:06:31;100712.41;;;10.65;100.00
47524;BME280;33253;42.144;25.884;2023-02-23T15:08:56;100711.47;;;10.63;100.00
47524;BME280;33253;42.144;25.884;2023-02-23T15:11:23;100714.81;;;10.61;100.00
47524;BME280;33253;42.144;25.884;2023-02-23T15:13:48;100708.63;;;10.57;100.00
47524;BME280;33253;42.144;25.884;2023-02-23T15:16:25;100712.78;;;10.54;100.00
47524;BME280;33253;42.144;25.884;2023-02-23T15:18:51;100711.56;;;10.45;100.00
47524;BME280;33253;42.144;25.884;2023-02-23T15:21:20;100717.91;;;10.32;100.00